sensor_id;sensor_type;location;lat;lon;timestamp;pressure;altitude;pressure_sealevel;temperature;humidity
69593;BME280;56796;50.122;14.468;2022-10-31T00:00:11;984.46;;;9.34;100
69593;BME280;56796;50.122;14.468;2022-10-31T00:19:37;984.47;;;9.09;100
69593;BME280;56796;50.122;14.468;2022-10-31T00:39:04;984.58;;;9.04;100
69593;BME280;56796;50.122;14.468;2022-10-31T00:58:30;984.61;;;8.84;100
69593;BME280;56796;50.122;14.468;2022-10-31T01:17:56;984.58;;;8.8;100
69593;BME280;56796;50.122;14.468;2022-10-31T01:37:24;984.67;;;8.76;100
69593;BME280;56796;50.122;14.468;2022-10-31T01:56:48;984.58;;;8.77;100
69593;BME280;56796;50.122;14.468;2022-10-31T02:16:17;984.54;;;8.64;100
69593;BME280;56796;50.122;14.468;2022-10-31T02:35:46;984.48;;;8.56;100
69593;BME280;56796;50.122;14.468;2022-10-31T02:55:09;984.6;;;8.3;100
69593;BME280;56796;50.122;14.468;2022-10-31T03:14:36;984.74;;;8.06;100
69593;BME280;56796;50.122;14.468;2022-10-31T03:34:03;984.74;;;7.96;100
69593;BME280;56796;50.122;14.468;2022-10-31T03:53:20;984.85;;;7.89;100
69593;BME280;56796;50.122;14.468;2022-10-31T04:12:49;984.84;;;7.74;100
69593;BME280;56796;50.122;14.468;2022-10-31T04:32:15;985.04;;;7.62;100
69593;BME280;56796;50.122;14.468;2022-10-31T04:51:33;985.1;;;7.81;100
69593;BME280;56796;50.122;14.468;2022-10-31T05:11:02;985.13;;;7.83;100
69593;BME280;56796;50.122;14.468;2022-10-31T05:30:26;985.09;;;7.89;100
69593;BME280;56796;50.122;14.468;2022-10-31T05:49:52;985.26;;;7.8;100
69593;BME280;56796;50.122;14.468;2022-10-31T06:09:18;985.25;;;7.88;100
69593;BME280;56796;50.122;14.468;2022-10-31T06:28:44;985.37;;;7.91;100
69593;BME280;56796;50.122;14.468;2022-10-31T06:48:14;985.55;;;8.2;100
69593;BME280;56796;50.122;14.468;2022-10-31T07:07:36;985.63;;;8.45;100
69593;BME280;56796;50.122;14.468;2022-10-31T07:27:02;985.72;;;8.87;100
69593;BME280;56796;50.122;14.468;2022-10-31T07:46:29;985.79;;;9.26;100
69593;BME280;56796;50.122;14.468;2022-10-31T08:06:01;985.87;;;9.71;100
69593;BME280;56796;50.122;14.468;2022-10-31T08:25:30;985.81;;;10.2;100
69593;BME280;56796;50.122;14.468;2022-10-31T08:44:56;985.89;;;10.62;100
69593;BME280;56796;50.122;14.468;2022-10-31T09:04:25;985.74;;;11.63;100
69593;BME280;56796;50.122;14.468;2022-10-31T09:23:55;985.63;;;12.48;100
69593;BME280;56796;50.122;14.468;2022-10-31T09:43:28;985.71;;;16.76;96.26
69593;BME280;56796;50.122;14.468;2022-10-31T10:03:02;985.81;;;14.39;93.85
69593;BME280;56796;50.122;14.468;2022-10-31T10:22:28;985.8;;;14.96;93.48
69593;BME280;56796;50.122;14.468;2022-10-31T10:41:55;985.54;;;18.37;82.52
69593;BME280;56796;50.122;14.468;2022-10-31T11:01:38;985.32;;;20.51;71.9
69593;BME280;56796;50.122;14.468;2022-10-31T12:00:20;984.88;;;23.1;62
69593;BME280;56796;50.122;14.468;2022-10-31T12:19:47;984.7;;;23.47;59.51
69593;BME280;56796;50.122;14.468;2022-10-31T12:58:41;984.4;;;22.66;60.71
69593;BME280;56796;50.122;14.468;2022-10-31T13:18:04;984.2;;;22.59;60.34
69593;BME280;56796;50.122;14.468;2022-10-31T13:37:27;983.96;;;21.15;63.6
69593;BME280;56796;50.122;14.468;2022-10-31T13:56:48;983.87;;;19.6;67.93
69593;BME280;56796;50.122;14.468;2022-10-31T14:16:16;983.7;;;16.54;76.93
69593;BME280;56796;50.122;14.468;2022-10-31T14:35:29;983.65;;;14.11;85.26
69593;BME280;56796;50.122;14.468;2022-10-31T14:54:38;983.5;;;12.89;90.56
69593;BME280;56796;50.122;14.468;2022-10-31T15:13:58;983.43;;;12.07;95.5
69593;BME280;56796;50.122;14.468;2022-10-31T15:33:20;983.35;;;10.99;98.7
69593;BME280;56796;50.122;14.468;2022-10-31T15:52:44;983.33;;;10.61;100
69593;BME280;56796;50.122;14.468;2022-10-31T16:12:01;983.2;;;10.58;100
69593;BME280;56796;50.122;14.468;2022-10-31T16:31:27;983.13;;;10.3;100
69593;BME280;56796;50.122;14.468;2022-10-31T16:50:52;983.01;;;10.32;100
69593;BME280;56796;50.122;14.468;2022-10-31T17:10:18;983.03;;;10.12;100
69593;BME280;56796;50.122;14.468;2022-10-31T17:29:43;983.04;;;10.06;100
69593;BME280;56796;50.122;14.468;2022-10-31T17:49:13;982.87;;;10.21;100
69593;BME280;56796;50.122;14.468;2022-10-31T18:08:38;982.81;;;9.84;100
69593;BME280;56796;50.122;14.468;2022-10-31T18:28:04;982.74;;;9.89;100
69593;BME280;56796;50.122;14.468;2022-10-31T18:47:30;982.7;;;9.93;100
69593;BME280;56796;50.122;14.468;2022-10-31T19:06:57;982.44;;;9.97;100
69593;BME280;56796;50.122;14.468;2022-10-31T19:26:25;982.4;;;9.88;100
69593;BME280;56796;50.122;14.468;2022-10-31T19:45:52;982.27;;;9.88;100
69593;BME280;56796;50.122;14.468;2022-10-31T20:05:15;982.29;;;9.7;100
69593;BME280;56796;50.122;14.468;2022-10-31T20:24:43;982.34;;;9.6;100
69593;BME280;56796;50.122;14.468;2022-10-31T20:44:07;981.92;;;9.49;100
69593;BME280;56796;50.122;14.468;2022-10-31T21:03:35;981.75;;;9.55;100
69593;BME280;56796;50.122;14.468;2022-10-31T21:23:00;982.18;;;9.64;100
69593;BME280;56796;50.122;14.468;2022-10-31T21:42:27;982;;;9.47;100
69593;BME280;56796;50.122;14.468;2022-10-31T22:01:54;981.8;;;9.5;100
69593;BME280;56796;50.122;14.468;2022-10-31T22:21:24;981.43;;;9.43;100
69593;BME280;56796;50.122;14.468;2022-10-31T22:40:49;981.57;;;9.57;100
69593;BME280;56796;50.122;14.468;2022-10-31T23:00:16;981.19;;;9.66;100
69593;BME280;56796;50.122;14.468;2022-10-31T23:19:44;981.59;;;9.75;100
69593;BME280;56796;50.122;14.468;2022-10-31T23:39:08;981.27;;;9.67;100
69593;BME280;56796;50.122;14.468;2022-10-31T23:58:34;981.36;;;9.72;100
